Time;durP1;ratioP1;P1;durP2;ratioP2;P2;SDS_P1;SDS_P2;PMS_P1;PMS_P2;Temp;Humidity;BMP_temperature;BMP_pressure;BME280_temperature;BME280_humidity;BME280_pressure;Samples;Min_cycle;Max_cycle;Signal;HPM_P1;HPM_P2
2022/03/21 00:00:53;;;;;;;33.92;12.82;;;;;;;;;;4950890;28;20464;-61
2022/03/21 00:03:21;;;;;;;36.88;13.90;;;;;;;;;;4950877;28;20022;-61
2022/03/21 00:05:47;;;;;;;38.72;13.40;;;;;;;;;;4952775;28;20122;-62
2022/03/21 00:08:14;;;;;;;32.88;11.73;;;;;;;;;;4950744;28;20322;-62
2022/03/21 00:10:40;;;;;;;35.38;13.30;;;;;;;;;;4951546;28;20460;-61
2022/03/21 00:13:06;;;;;;;34.85;13.48;;;;;;;;;;4950377;28;20316;-61
2022/03/21 00:15:32;;;;;;;36.22;13.13;;;;;;;;;;4950433;28;20033;-62
2022/03/21 00:17:58;;;;;;;31.85;12.05;;;;;;;;;;4950399;28;20452;-61
2022/03/21 00:20:25;;;;;;;35.80;12.52;;;;;;;;;;4951546;28;20414;-61
2022/03/21 00:22:52;;;;;;;31.05;13.20;;;;;;;;;;4950618;28;20052;-61
2022/03/21 00:25:17;;;;;;;32.80;13.05;;;;;;;;;;4950115;28;20441;-61
2022/03/21 00:27:42;;;;;;;33.63;13.65;;;;;;;;;;4964809;28;20445;-62
2022/03/21 00:30:09;;;;;;;32.05;12.52;;;;;;;;;;4950304;28;20437;-62
2022/03/21 00:32:35;;;;;;;33.28;12.02;;;;;;;;;;4950733;28;20369;-62
2022/03/21 00:35:01;;;;;;;29.85;12.18;;;;;;;;;;4950134;28;20115;-62
2022/03/21 00:37:27;;;;;;;38.10;12.98;;;;;;;;;;4949827;28;20540;-61
2022/03/21 00:39:53;;;;;;;34.90;12.45;;;;;;;;;;4950208;28;20100;-61
2022/03/21 00:42:18;;;;;;;28.02;11.93;;;;;;;;;;4950484;28;20026;-62
2022/03/21 00:44:44;;;;;;;27.40;11.45;;;;;;;;;;4950821;28;20411;-62
2022/03/21 00:47:10;;;;;;;36.25;12.75;;;;;;;;;;4950194;28;20429;-61
2022/03/21 00:49:35;;;;;;;26.92;11.38;;;;;;;;;;4950068;28;20123;-62
2022/03/21 00:52:01;;;;;;;30.15;12.02;;;;;;;;;;4949838;28;20071;-61
2022/03/21 00:54:26;;;;;;;31.15;11.63;;;;;;;;;;4949990;28;20441;-62
2022/03/21 00:56:52;;;;;;;36.10;12.35;;;;;;;;;;4949758;28;20133;-62
2022/03/21 00:59:17;;;;;;;31.77;11.40;;;;;;;;;;4949539;28;20501;-62
2022/03/21 01:01:42;;;;;;;28.20;12.02;;;;;;;;;;4942965;28;20424;-62
2022/03/21 01:04:08;;;;;;;25.17;11.88;;;;;;;;;;4949838;28;20447;-63
2022/03/21 01:06:33;;;;;;;31.67;12.07;;;;;;;;;;4949958;28;20444;-61
2022/03/21 01:08:59;;;;;;;26.77;11.90;;;;;;;;;;4953768;28;20391;-62
2022/03/21 01:11:24;;;;;;;29.30;11.95;;;;;;;;;;4956704;28;20424;-62
2022/03/21 01:13:50;;;;;;;34.35;12.77;;;;;;;;;;4956374;28;20346;-61
2022/03/21 01:16:15;;;;;;;28.92;11.50;;;;;;;;;;4956288;28;20022;-62
2022/03/21 01:18:41;;;;;;;35.72;12.90;;;;;;;;;;4956098;28;20340;-62
2022/03/21 01:21:07;;;;;;;29.55;11.57;;;;;;;;;;4956827;28;20488;-61
2022/03/21 01:23:32;;;;;;;41.63;13.05;;;;;;;;;;4955683;28;20345;-61
2022/03/21 01:25:58;;;;;;;32.83;12.82;;;;;;;;;;4956941;28;20332;-61
2022/03/21 01:28:23;;;;;;;23.77;11.45;;;;;;;;;;4956466;28;20337;-61
2022/03/21 01:30:48;;;;;;;32.20;12.13;;;;;;;;;;4956195;28;20441;-61
2022/03/21 01:33:13;;;;;;;29.40;11.07;;;;;;;;;;4956288;28;20107;-61
2022/03/21 01:35:39;;;;;;;29.75;11.15;;;;;;;;;;4954986;28;20479;-61
2022/03/21 01:38:04;;;;;;;27.13;11.35;;;;;;;;;;4956067;28;20435;-62
2022/03/21 01:40:29;;;;;;;25.05;10.88;;;;;;;;;;4956658;28;20499;-64
2022/03/21 01:42:55;;;;;;;24.23;10.60;;;;;;;;;;4971032;28;20448;-62
2022/03/21 01:45:20;;;;;;;27.95;10.32;;;;;;;;;;4955707;28;20118;-61
2022/03/21 01:47:46;;;;;;;33.63;12.45;;;;;;;;;;4956138;28;20460;-62
2022/03/21 01:50:12;;;;;;;23.15;10.52;;;;;;;;;;4955610;28;20536;-61
2022/03/21 01:52:38;;;;;;;31.27;11.40;;;;;;;;;;4956108;28;20429;-61
2022/03/21 01:57:49;;;;;;;26.17;10.90;;;;;;;;;;4956700;28;20525;-62
2022/03/21 02:00:14;;;;;;;32.22;12.02;;;;;;;;;;4955450;28;20434;-61
2022/03/21 02:02:40;;;;;;;25.98;10.88;;;;;;;;;;4956023;28;20504;-61
2022/03/21 02:05:06;;;;;;;28.40;10.75;;;;;;;;;;4955667;28;20073;-62
2022/03/21 02:07:31;;;;;;;21.80;9.73;;;;;;;;;;4955673;28;20333;-62
2022/03/21 02:09:57;;;;;;;27.23;10.25;;;;;;;;;;4955729;28;20409;-62
2022/03/21 02:12:22;;;;;;;26.95;11.75;;;;;;;;;;4957228;28;20416;-61
2022/03/21 02:14:48;;;;;;;25.80;9.90;;;;;;;;;;4956177;28;20424;-61
2022/03/21 02:17:22;;;;;;;25.00;10.50;;;;;;;;;;4955715;28;20337;-61
2022/03/21 02:19:47;;;;;;;21.00;9.43;;;;;;;;;;4954349;28;20471;-61
2022/03/21 02:22:22;;;;;;;27.55;11.10;;;;;;;;;;4952053;28;20439;-61
2022/03/21 02:25:06;;;;;;;23.08;9.68;;;;;;;;;;4952496;28;20048;-61
2022/03/21 02:27:32;;;;;;;24.42;9.88;;;;;;;;;;4953066;28;20372;-62
2022/03/21 02:29:58;;;;;;;26.25;10.23;;;;;;;;;;4935052;28;20044;-62
2022/03/21 02:32:25;;;;;;;23.95;9.80;;;;;;;;;;4934987;28;20434;-63
2022/03/21 02:34:50;;;;;;;22.83;9.82;;;;;;;;;;4934611;28;20456;-63
2022/03/21 02:37:17;;;;;;;27.02;10.63;;;;;;;;;;4952390;28;20572;-62
2022/03/21 02:39:44;;;;;;;24.88;10.52;;;;;;;;;;4952384;28;20034;-61
2022/03/21 02:42:09;;;;;;;25.75;10.48;;;;;;;;;;4952110;28;20372;-61
2022/03/21 02:44:36;;;;;;;23.92;10.27;;;;;;;;;;4952317;28;20120;-61
2022/03/21 02:47:03;;;;;;;21.05;9.40;;;;;;;;;;4954030;28;20384;-61
2022/03/21 02:49:28;;;;;;;23.77;10.82;;;;;;;;;;4951760;28;20457;-62
2022/03/21 02:51:55;;;;;;;26.63;10.45;;;;;;;;;;4951758;28;20400;-61
2022/03/21 02:54:22;;;;;;;23.08;10.13;;;;;;;;;;4951994;28;20417;-61
2022/03/21 02:56:48;;;;;;;18.65;9.13;;;;;;;;;;4951790;28;20422;-61
2022/03/21 02:59:15;;;;;;;22.92;11.15;;;;;;;;;;4952231;28;20322;-62
2022/03/21 03:01:41;;;;;;;28.40;10.27;;;;;;;;;;4951587;28;20341;-61
2022/03/21 03:04:07;;;;;;;26.73;9.98;;;;;;;;;;4951896;28;20357;-61
2022/03/21 03:06:32;;;;;;;29.50;10.38;;;;;;;;;;4952176;28;20061;-61
2022/03/21 03:09:53;;;;;;;20.08;10.15;;;;;;;;;;4951599;28;20059;-62
2022/03/21 03:12:19;;;;;;;25.63;10.00;;;;;;;;;;4951179;28;20463;-61
2022/03/21 03:14:44;;;;;;;23.30;9.85;;;;;;;;;;4951386;28;20453;-61
2022/03/21 03:17:09;;;;;;;23.73;11.13;;;;;;;;;;4951843;28;20392;-61
2022/03/21 03:19:44;;;;;;;23.20;9.95;;;;;;;;;;4951525;28;20038;-61
2022/03/21 03:22:10;;;;;;;23.60;10.32;;;;;;;;;;4951506;28;20026;-61
2022/03/21 03:24:36;;;;;;;21.55;9.57;;;;;;;;;;4933950;28;20453;-63
2022/03/21 03:27:01;;;;;;;25.23;11.18;;;;;;;;;;4951342;28;20339;-62
2022/03/21 03:29:51;;;;;;;23.92;11.23;;;;;;;;;;4951462;28;20449;-61
2022/03/21 03:32:17;;;;;;;22.00;10.50;;;;;;;;;;4950780;28;20065;-61
2022/03/21 03:34:42;;;;;;;20.67;9.98;;;;;;;;;;4951229;28;20451;-62
2022/03/21 03:37:07;;;;;;;29.65;10.10;;;;;;;;;;4950883;28;20445;-61
2022/03/21 03:39:34;;;;;;;26.75;10.07;;;;;;;;;;4951255;28;20056;-62
2022/03/21 03:41:59;;;;;;;25.42;10.98;;;;;;;;;;4950673;28;20434;-61
2022/03/21 03:44:26;;;;;;;22.60;10.23;;;;;;;;;;4950889;28;20464;-62
2022/03/21 03:46:51;;;;;;;19.08;9.93;;;;;;;;;;4951108;28;20048;-61
2022/03/21 03:49:17;;;;;;;26.60;10.98;;;;;;;;;;4951035;28;20409;-62
2022/03/21 03:52:16;;;;;;;24.13;10.63;;;;;;;;;;4951091;28;20442;-61
2022/03/21 03:54:42;;;;;;;21.42;9.57;;;;;;;;;;4950699;28;20437;-61
2022/03/21 03:57:09;;;;;;;26.90;10.52;;;;;;;;;;4950867;28;20463;-61
2022/03/21 03:59:34;;;;;;;21.88;9.13;;;;;;;;;;4950764;28;20380;-61
2022/03/21 04:02:00;;;;;;;24.98;9.57;;;;;;;;;;4950945;28;20315;-61
2022/03/21 04:04:25;;;;;;;21.85;9.88;;;;;;;;;;4950806;28;20357;-61
2022/03/21 04:06:50;;;;;;;27.60;10.05;;;;;;;;;;4950369;28;20385;-61
2022/03/21 04:09:16;;;;;;;20.48;9.60;;;;;;;;;;4951389;28;20463;-61
2022/03/21 04:11:41;;;;;;;22.17;9.73;;;;;;;;;;4950591;28;20384;-61
2022/03/21 04:14:06;;;;;;;21.75;9.73;;;;;;;;;;4950388;28;20434;-61
2022/03/21 04:16:32;;;;;;;22.58;10.25;;;;;;;;;;4950324;28;20334;-61
2022/03/21 04:18:57;;;;;;;23.02;8.57;;;;;;;;;;4952416;28;20503;-62
2022/03/21 04:21:22;;;;;;;20.27;9.25;;;;;;;;;;4949945;28;20461;-62
2022/03/21 04:23:48;;;;;;;22.13;9.38;;;;;;;;;;4950758;28;20365;-61
2022/03/21 04:26:13;;;;;;;23.75;10.07;;;;;;;;;;4950589;28;20388;-61
2022/03/21 04:28:39;;;;;;;26.05;10.38;;;;;;;;;;4950525;28;20437;-61
2022/03/21 04:31:04;;;;;;;19.20;9.68;;;;;;;;;;4950570;28;20415;-62
2022/03/21 04:33:30;;;;;;;23.23;11.35;;;;;;;;;;4950283;28;20418;-61
2022/03/21 04:35:55;;;;;;;16.45;8.13;;;;;;;;;;4950143;28;20484;-61
2022/03/21 04:38:20;;;;;;;20.38;9.90;;;;;;;;;;4950292;28;20461;-63
2022/03/21 04:40:47;;;;;;;20.48;9.65;;;;;;;;;;4950490;28;20628;-61
2022/03/21 04:43:14;;;;;;;20.63;9.63;;;;;;;;;;4949729;28;20306;-61
2022/03/21 04:45:43;;;;;;;21.42;10.27;;;;;;;;;;4949852;28;20326;-61
2022/03/21 04:48:10;;;;;;;22.15;10.23;;;;;;;;;;4950104;28;20385;-63
2022/03/21 04:50:35;;;;;;;20.83;9.73;;;;;;;;;;4950403;28;20306;-63
2022/03/21 04:53:01;;;;;;;20.10;9.45;;;;;;;;;;4950546;28;20329;-61
2022/03/21 04:55:28;;;;;;;26.45;10.43;;;;;;;;;;4951045;28;20029;-61
2022/03/21 04:57:53;;;;;;;22.70;10.85;;;;;;;;;;4949774;28;20510;-61
2022/03/21 05:00:19;;;;;;;21.40;10.75;;;;;;;;;;4950332;28;20449;-61
2022/03/21 05:02:44;;;;;;;20.02;9.00;;;;;;;;;;4949659;28;20345;-63
2022/03/21 05:05:09;;;;;;;20.20;9.98;;;;;;;;;;4949367;28;20329;-61
2022/03/21 05:07:45;;;;;;;23.67;9.90;;;;;;;;;;4950732;28;20022;-61
2022/03/21 05:10:12;;;;;;;20.33;9.10;;;;;;;;;;4950765;28;20460;-62
2022/03/21 05:12:37;;;;;;;19.55;9.88;;;;;;;;;;4949588;28;20393;-61
2022/03/21 05:15:05;;;;;;;20.45;10.43;;;;;;;;;;4951614;28;20380;-62
2022/03/21 05:17:30;;;;;;;23.48;10.30;;;;;;;;;;4949421;28;20342;-61
2022/03/21 05:19:56;;;;;;;21.88;10.38;;;;;;;;;;4949624;28;20057;-62
2022/03/21 05:22:21;;;;;;;24.85;10.95;;;;;;;;;;4949842;28;20144;-62
2022/03/21 05:35:55;;;;;;;26.75;13.15;;;;;;;;;;4949242;28;20384;-62
2022/03/21 05:38:28;;;;;;;26.52;13.98;;;;;;;;;;4933730;28;20549;-61
2022/03/21 05:40:59;;;;;;;31.13;13.43;;;;;;;;;;4949816;28;20321;-61
2022/03/21 05:43:25;;;;;;;31.67;12.75;;;;;;;;;;4948676;28;20428;-62
2022/03/21 05:45:52;;;;;;;29.02;13.52;;;;;;;;;;4949454;28;20409;-61
2022/03/21 05:51:02;;;;;;;27.08;13.40;;;;;;;;;;4950666;28;20452;-62
2022/03/21 05:53:27;;;;;;;31.90;13.15;;;;;;;;;;4949307;28;20406;-61
2022/03/21 05:55:55;;;;;;;27.65;13.27;;;;;;;;;;4953232;28;20570;-61
2022/03/21 05:58:21;;;;;;;29.77;12.90;;;;;;;;;;4955035;28;20413;-61
2022/03/21 06:00:46;;;;;;;23.33;11.73;;;;;;;;;;4967920;28;20089;-61
2022/03/21 06:03:11;;;;;;;34.40;14.90;;;;;;;;;;4953168;28;20391;-61
2022/03/21 06:05:37;;;;;;;30.60;12.65;;;;;;;;;;4952215;28;20353;-62
2022/03/21 06:08:02;;;;;;;30.60;12.27;;;;;;;;;;4953431;28;20508;-61
2022/03/21 06:10:29;;;;;;;29.83;13.82;;;;;;;;;;4952518;28;20440;-62
2022/03/21 06:12:55;;;;;;;35.35;14.77;;;;;;;;;;4952920;28;20687;-62
2022/03/21 06:15:20;;;;;;;30.80;13.85;;;;;;;;;;4953518;28;20433;-62
2022/03/21 06:17:45;;;;;;;35.00;13.05;;;;;;;;;;4952880;28;20492;-62
2022/03/21 06:20:13;;;;;;;31.20;12.77;;;;;;;;;;4952483;28;20345;-62
2022/03/21 06:22:39;;;;;;;27.40;13.55;;;;;;;;;;4952564;28;20484;-62
2022/03/21 06:25:05;;;;;;;34.10;13.30;;;;;;;;;;4952567;28;20500;-62
2022/03/21 06:27:32;;;;;;;29.98;13.82;;;;;;;;;;4952262;28;20420;-61
2022/03/21 06:29:58;;;;;;;29.10;12.40;;;;;;;;;;4953254;28;20424;-61
2022/03/21 06:32:25;;;;;;;26.30;12.07;;;;;;;;;;4953159;28;20434;-62
2022/03/21 06:34:51;;;;;;;28.20;12.70;;;;;;;;;;4953000;28;20349;-62
2022/03/21 06:37:16;;;;;;;25.30;12.57;;;;;;;;;;4951982;28;20354;-61
2022/03/21 06:39:41;;;;;;;28.58;12.25;;;;;;;;;;4953330;28;20349;-62
2022/03/21 06:42:08;;;;;;;21.25;10.90;;;;;;;;;;4951724;28;20473;-62
2022/03/21 06:44:34;;;;;;;28.55;11.85;;;;;;;;;;4952288;28;20432;-62
2022/03/21 06:47:00;;;;;;;25.30;11.13;;;;;;;;;;4952575;28;20401;-63
2022/03/21 06:49:29;;;;;;;31.25;11.68;;;;;;;;;;4951992;28;20325;-62
2022/03/21 06:51:56;;;;;;;29.73;11.88;;;;;;;;;;4951933;28;20420;-62
2022/03/21 06:54:21;;;;;;;25.15;11.15;;;;;;;;;;4952052;28;20088;-62
2022/03/21 06:56:46;;;;;;;30.85;13.00;;;;;;;;;;4951742;28;20467;-62
2022/03/21 06:59:12;;;;;;;25.17;11.68;;;;;;;;;;4952466;28;20398;-62
2022/03/21 07:01:37;;;;;;;23.58;11.18;;;;;;;;;;4951880;28;20393;-62
2022/03/21 07:04:04;;;;;;;22.15;11.00;;;;;;;;;;4952252;28;20330;-62
2022/03/21 07:06:29;;;;;;;27.75;10.93;;;;;;;;;;4950590;28;20449;-62
2022/03/21 07:08:54;;;;;;;29.48;11.52;;;;;;;;;;4951895;28;20433;-62
2022/03/21 07:11:21;;;;;;;25.42;11.35;;;;;;;;;;4952058;28;20421;-62
2022/03/21 07:13:46;;;;;;;21.95;10.32;;;;;;;;;;4951680;28;20419;-62
2022/03/21 07:16:16;;;;;;;20.13;10.45;;;;;;;;;;4951485;28;20462;-62
2022/03/21 07:18:44;;;;;;;24.65;10.55;;;;;;;;;;4951353;28;20354;-63
2022/03/21 07:21:09;;;;;;;27.57;10.53;;;;;;;;;;4952316;28;20397;-62
2022/03/21 07:23:35;;;;;;;24.77;10.32;;;;;;;;;;4950958;28;20288;-62
2022/03/21 07:26:02;;;;;;;26.95;11.27;;;;;;;;;;4951186;28;20303;-61
2022/03/21 07:28:27;;;;;;;20.67;9.95;;;;;;;;;;4933854;28;20479;-62
2022/03/21 07:30:52;;;;;;;20.77;10.38;;;;;;;;;;4934625;28;20431;-62
2022/03/21 07:33:18;;;;;;;25.00;9.90;;;;;;;;;;4951060;28;20345;-62
2022/03/21 07:35:44;;;;;;;22.33;9.93;;;;;;;;;;4950432;28;20349;-62
2022/03/21 07:38:09;;;;;;;22.00;9.43;;;;;;;;;;4951031;28;20464;-62
2022/03/21 07:40:35;;;;;;;24.95;10.60;;;;;;;;;;4951127;28;20464;-62
2022/03/21 07:43:00;;;;;;;23.13;10.90;;;;;;;;;;4951961;28;20448;-62
2022/03/21 07:48:11;;;;;;;18.40;10.80;;;;;;;;;;4951003;28;20060;-62
2022/03/21 07:50:37;;;;;;;27.88;13.23;;;;;;;;;;4952625;28;20425;-62
2022/03/21 07:53:03;;;;;;;26.23;10.90;;;;;;;;;;4951763;28;20504;-62
2022/03/21 07:55:31;;;;;;;30.08;12.82;;;;;;;;;;4951034;28;20492;-62
2022/03/21 07:57:56;;;;;;;23.80;11.15;;;;;;;;;;4951180;28;20420;-62
2022/03/21 08:00:23;;;;;;;32.53;13.50;;;;;;;;;;4950578;28;20441;-62
2022/03/21 08:02:49;;;;;;;31.83;14.90;;;;;;;;;;4951545;28;20431;-64
2022/03/21 08:05:14;;;;;;;37.83;15.25;;;;;;;;;;4950609;28;20403;-62
2022/03/21 08:07:40;;;;;;;40.53;16.75;;;;;;;;;;4950671;28;20446;-62
2022/03/21 08:10:06;;;;;;;32.25;15.18;;;;;;;;;;4933499;28;20365;-62
2022/03/21 08:12:31;;;;;;;47.20;18.02;;;;;;;;;;4950567;28;20431;-63
2022/03/21 08:14:59;;;;;;;33.42;14.25;;;;;;;;;;4950838;28;20412;-63
2022/03/21 08:17:26;;;;;;;37.63;17.27;;;;;;;;;;4932867;28;20424;-62
2022/03/21 08:19:51;;;;;;;37.33;16.83;;;;;;;;;;4932818;28;20030;-63
2022/03/21 08:22:17;;;;;;;46.05;17.52;;;;;;;;;;4950291;28;20447;-62
2022/03/21 08:24:42;;;;;;;47.05;17.92;;;;;;;;;;4950068;28;20439;-63
2022/03/21 08:27:08;;;;;;;41.67;16.48;;;;;;;;;;4951713;28;20333;-63
2022/03/21 08:29:33;;;;;;;49.35;17.10;;;;;;;;;;4949805;28;20357;-62
2022/03/21 08:31:59;;;;;;;42.50;15.95;;;;;;;;;;4950146;28;20437;-63
2022/03/21 08:34:24;;;;;;;45.40;16.15;;;;;;;;;;4949645;28;20409;-63
2022/03/21 08:36:50;;;;;;;40.22;17.55;;;;;;;;;;4949720;28;20434;-63
2022/03/21 08:39:15;;;;;;;40.85;17.15;;;;;;;;;;4950125;28;20404;-62
2022/03/21 08:41:40;;;;;;;41.85;16.05;;;;;;;;;;4950324;28;20037;-62
2022/03/21 08:44:06;;;;;;;45.28;15.70;;;;;;;;;;4949822;28;20326;-62
2022/03/21 08:46:31;;;;;;;45.92;16.83;;;;;;;;;;4950023;28;20468;-62
2022/03/21 08:51:41;;;;;;;48.20;17.20;;;;;;;;;;4951761;28;20377;-62
2022/03/21 08:54:07;;;;;;;40.80;15.63;;;;;;;;;;4949614;28;20326;-62
2022/03/21 08:56:33;;;;;;;46.83;16.60;;;;;;;;;;4950868;28;20057;-62
2022/03/21 08:58:58;;;;;;;45.85;15.73;;;;;;;;;;4949918;28;20393;-62
2022/03/21 09:01:24;;;;;;;46.60;16.08;;;;;;;;;;4949725;28;20416;-64
2022/03/21 09:03:51;;;;;;;42.88;15.57;;;;;;;;;;4949491;28;20425;-62
2022/03/21 09:06:20;;;;;;;48.38;15.95;;;;;;;;;;4950690;28;20033;-63
2022/03/21 09:08:46;;;;;;;47.95;15.77;;;;;;;;;;4950703;28;20376;-63
2022/03/21 09:11:11;;;;;;;41.25;14.23;;;;;;;;;;4949858;28;20104;-63
2022/03/21 09:13:36;;;;;;;40.13;14.32;;;;;;;;;;4949678;28;20421;-63
2022/03/21 09:16:02;;;;;;;42.33;15.20;;;;;;;;;;4950340;28;20319;-63
2022/03/21 09:18:27;;;;;;;32.03;14.10;;;;;;;;;;4951271;28;20378;-62
2022/03/21 09:20:52;;;;;;;37.88;13.65;;;;;;;;;;4949803;28;20456;-62
2022/03/21 09:23:17;;;;;;;34.55;13.05;;;;;;;;;;4950058;28;20396;-62
2022/03/21 09:25:43;;;;;;;39.65;14.07;;;;;;;;;;4949288;28;20349;-63
2022/03/21 09:28:08;;;;;;;30.58;12.75;;;;;;;;;;4949958;28;20445;-62
2022/03/21 09:30:34;;;;;;;29.52;12.10;;;;;;;;;;4952273;28;20029;-62
2022/03/21 09:32:59;;;;;;;36.78;13.80;;;;;;;;;;4954847;28;20310;-63
2022/03/21 09:35:24;;;;;;;33.75;12.70;;;;;;;;;;4953903;28;20392;-63
2022/03/21 09:37:50;;;;;;;32.45;12.20;;;;;;;;;;4953066;28;20049;-62
2022/03/21 09:40:19;;;;;;;33.22;12.55;;;;;;;;;;4953581;28;20349;-62
2022/03/21 09:42:44;;;;;;;;;;;;;;;;;;4936372;28;20445;-62
2022/03/21 09:45:10;;;;;;;31.85;11.35;;;;;;;;;;4953467;28;20379;-62
2022/03/21 09:50:20;;;;;;;34.58;12.07;;;;;;;;;;4939723;28;20583;-63
2022/03/21 09:52:45;;;;;;;31.17;11.38;;;;;;;;;;4952909;28;20437;-63
2022/03/21 09:55:11;;;;;;;30.88;11.77;;;;;;;;;;4936129;28;20401;-63
2022/03/21 09:57:36;;;;;;;28.83;10.13;;;;;;;;;;4952918;28;20433;-63
2022/03/21 10:00:06;;;;;;;31.23;11.43;;;;;;;;;;4953555;28;20338;-64
2022/03/21 10:02:31;;;;;;;23.75;9.10;;;;;;;;;;4953605;28;20429;-62
2022/03/21 10:04:57;;;;;;;27.30;10.85;;;;;;;;;;4952598;28;20500;-63
2022/03/21 10:07:26;;;;;;;23.73;10.02;;;;;;;;;;4952658;28;20026;-62
2022/03/21 10:10:12;;;;;;;23.48;9.68;;;;;;;;;;4952492;28;20421;-63
2022/03/21 10:12:39;;;;;;;31.13;10.45;;;;;;;;;;4952715;28;20409;-63
2022/03/21 10:15:06;;;;;;;26.85;9.88;;;;;;;;;;4952306;28;20417;-63
2022/03/21 10:17:31;;;;;;;23.42;10.18;;;;;;;;;;4952590;28;20508;-64
2022/03/21 10:19:56;;;;;;;26.08;9.20;;;;;;;;;;4952356;28;20426;-63
2022/03/21 10:22:34;;;;;;;23.77;9.32;;;;;;;;;;4952903;28;20459;-63
2022/03/21 10:25:19;;;;;;;21.95;9.93;;;;;;;;;;4953293;28;20357;-64
2022/03/21 10:27:46;;;;;;;22.25;8.38;;;;;;;;;;4952848;28;20089;-63
2022/03/21 10:30:18;;;;;;;22.15;9.10;;;;;;;;;;4952247;28;20536;-63
2022/03/21 10:32:46;;;;;;;26.33;9.38;;;;;;;;;;4953353;28;20464;-62
2022/03/21 10:35:17;;;;;;;26.10;9.50;;;;;;;;;;4952493;28;20025;-63
2022/03/21 10:37:58;;;;;;;22.92;9.00;;;;;;;;;;4951560;28;20531;-64
2022/03/21 10:40:31;;;;;;;22.25;9.57;;;;;;;;;;4951593;28;20038;-63
2022/03/21 10:42:59;;;;;;;22.33;8.55;;;;;;;;;;4953685;28;20501;-62
2022/03/21 10:45:38;;;;;;;23.00;9.65;;;;;;;;;;4951923;28;20494;-63
2022/03/21 10:48:05;;;;;;;23.90;9.45;;;;;;;;;;4952433;28;20428;-63
2022/03/21 10:50:35;;;;;;;26.92;10.15;;;;;;;;;;4953672;28;20307;-62
2022/03/21 10:53:03;;;;;;;20.45;9.20;;;;;;;;;;4954285;28;20370;-63
2022/03/21 10:55:29;;;;;;;23.67;8.73;;;;;;;;;;4951924;28;20418;-63
2022/03/21 10:57:55;;;;;;;27.17;9.88;;;;;;;;;;4953131;28;20337;-63
2022/03/21 11:00:20;;;;;;;24.60;9.50;;;;;;;;;;4952428;28;20437;-63
2022/03/21 11:02:58;;;;;;;20.15;7.90;;;;;;;;;;4951796;28;20513;-63
2022/03/21 11:05:25;;;;;;;25.50;8.73;;;;;;;;;;4951823;28;20441;-63
2022/03/21 11:07:53;;;;;;;20.98;9.48;;;;;;;;;;4951888;28;20311;-63
2022/03/21 11:10:20;;;;;;;19.05;8.70;;;;;;;;;;4951843;28;20103;-62
2022/03/21 11:12:45;;;;;;;24.80;9.52;;;;;;;;;;4951483;28;20344;-63
2022/03/21 11:15:14;;;;;;;16.98;8.18;;;;;;;;;;4951271;28;20118;-62
2022/03/21 11:17:44;;;;;;;23.65;9.85;;;;;;;;;;4951125;28;20456;-63
2022/03/21 11:20:11;;;;;;;21.08;9.23;;;;;;;;;;2400976;28;10001991;-63
2022/03/21 11:22:37;;;;;;;22.30;9.45;;;;;;;;;;4943715;28;20544;-63
2022/03/21 11:25:03;;;;;;;17.27;8.82;;;;;;;;;;4971972;28;20348;-62
2022/03/21 11:27:51;;;;;;;20.92;7.88;;;;;;;;;;4969845;28;20328;-63
2022/03/21 11:30:44;;;;;;;17.67;7.55;;;;;;;;;;4971227;28;20333;-63
2022/03/21 11:33:38;;;;;;;17.00;7.63;;;;;;;;;;4975592;28;20449;-63
2022/03/21 11:36:05;;;;;;;19.58;7.53;;;;;;;;;;4970369;28;20599;-63
2022/03/21 11:38:35;;;;;;;17.30;8.38;;;;;;;;;;4971238;28;20425;-63
2022/03/21 11:41:22;;;;;;;15.07;7.05;;;;;;;;;;4970704;28;20128;-62
2022/03/21 11:44:14;;;;;;;17.67;7.72;;;;;;;;;;4968949;28;20330;-63
2022/03/21 11:46:42;;;;;;;18.50;7.10;;;;;;;;;;4961612;28;20080;-63
2022/03/21 11:49:22;;;;;;;18.35;7.78;;;;;;;;;;4970510;28;20329;-63
2022/03/21 11:52:00;;;;;;;20.17;8.00;;;;;;;;;;4970394;28;20356;-63
2022/03/21 11:54:34;;;;;;;16.75;7.65;;;;;;;;;;4971699;28;20425;-63
2022/03/21 11:57:17;;;;;;;16.55;7.15;;;;;;;;;;4970084;28;20328;-63
2022/03/21 11:59:43;;;;;;;16.00;7.35;;;;;;;;;;4970420;28;20462;-62
2022/03/21 12:02:12;;;;;;;20.83;7.50;;;;;;;;;;4969993;28;20353;-63
2022/03/21 12:04:39;;;;;;;15.97;7.63;;;;;;;;;;4970182;28;20440;-62
2022/03/21 12:07:13;;;;;;;14.63;6.72;;;;;;;;;;4970911;28;20247;-63
2022/03/21 12:09:43;;;;;;;15.73;6.78;;;;;;;;;;4969960;28;20808;-64
2022/03/21 12:12:10;;;;;;;17.30;6.95;;;;;;;;;;4970275;28;20457;-63
2022/03/21 12:14:46;;;;;;;15.45;6.80;;;;;;;;;;4969837;28;20142;-63
2022/03/21 12:17:11;;;;;;;15.02;7.15;;;;;;;;;;4968777;28;20452;-63
2022/03/21 12:19:54;;;;;;;16.58;7.22;;;;;;;;;;4969723;28;20491;-63
2022/03/21 12:22:39;;;;;;;15.60;6.70;;;;;;;;;;4970682;28;20056;-63
2022/03/21 12:25:09;;;;;;;15.15;6.15;;;;;;;;;;4969771;28;20422;-63
2022/03/21 12:27:34;;;;;;;13.07;5.88;;;;;;;;;;4969644;28;20087;-63
2022/03/21 12:30:34;;;;;;;14.05;6.28;;;;;;;;;;4970520;28;20033;-63
2022/03/21 12:33:00;;;;;;;11.73;6.32;;;;;;;;;;4926498;28;20420;-62
2022/03/21 12:35:31;;;;;;;12.60;5.47;;;;;;;;;;4969525;28;20452;-63
2022/03/21 12:38:07;;;;;;;13.77;5.57;;;;;;;;;;4970432;28;20441;-63
2022/03/21 12:40:34;;;;;;;14.77;5.95;;;;;;;;;;4969375;28;20384;-62
2022/03/21 12:43:01;;;;;;;11.75;6.57;;;;;;;;;;4969545;28;20084;-62
2022/03/21 12:45:29;;;;;;;14.10;5.25;;;;;;;;;;4969294;28;20376;-63
2022/03/21 12:48:00;;;;;;;13.50;5.63;;;;;;;;;;4969476;28;20029;-63
2022/03/21 12:50:25;;;;;;;9.45;4.93;;;;;;;;;;4969334;28;20052;-63
2022/03/21 12:52:55;;;;;;;11.65;5.22;;;;;;;;;;4969398;28;20026;-62
2022/03/21 12:55:21;;;;;;;12.77;5.10;;;;;;;;;;4969143;28;20329;-62
2022/03/21 12:57:56;;;;;;;15.90;5.63;;;;;;;;;;4969612;28;20149;-63
2022/03/21 13:00:23;;;;;;;10.82;5.25;;;;;;;;;;4969516;28;20398;-62
2022/03/21 13:02:49;;;;;;;10.07;4.90;;;;;;;;;;4967916;28;20045;-63
2022/03/21 13:10:43;;;;;;;10.77;5.05;;;;;;;;;;4970174;28;20518;-63
2022/03/21 13:13:08;;;;;;;12.02;5.10;;;;;;;;;;4968994;28;20425;-63
2022/03/21 13:15:35;;;;;;;9.27;4.55;;;;;;;;;;4968984;28;20436;-62
2022/03/21 13:18:05;;;;;;;11.43;5.32;;;;;;;;;;4969366;28;20417;-62
2022/03/21 13:20:38;;;;;;;12.02;4.93;;;;;;;;;;4969010;28;20464;-63
2022/03/21 13:23:05;;;;;;;8.50;4.72;;;;;;;;;;4969360;28;20164;-62
2022/03/21 13:25:32;;;;;;;9.40;4.63;;;;;;;;;;4968779;28;20344;-63
2022/03/21 13:28:19;;;;;;;11.15;7.30;;;;;;;;;;4969065;28;20483;-62
2022/03/21 13:30:58;;;;;;;12.18;7.32;;;;;;;;;;4968908;28;20475;-63
2022/03/21 13:33:26;;;;;;;;;;;;;;;;;;4969292;28;20421;-62
2022/03/21 13:35:59;;;;;;;9.57;4.65;;;;;;;;;;4968546;28;20315;-62
2022/03/21 13:38:25;;;;;;;9.23;4.38;;;;;;;;;;4969021;28;20108;-62
2022/03/21 13:40:51;;;;;;;9.65;4.82;;;;;;;;;;4970634;28;20413;-62
2022/03/21 13:43:18;;;;;;;13.80;5.13;;;;;;;;;;4968463;28;20472;-62
2022/03/21 13:45:44;;;;;;;10.30;5.45;;;;;;;;;;4968235;28;20486;-63
2022/03/21 13:48:09;;;;;;;11.02;4.40;;;;;;;;;;4969664;28;20364;-63
2022/03/21 13:50:41;;;;;;;11.48;5.07;;;;;;;;;;4968599;28;20321;-63
2022/03/21 13:53:26;;;;;;;9.25;4.35;;;;;;;;;;4968652;28;20080;-63
2022/03/21 13:55:52;;;;;;;11.43;5.03;;;;;;;;;;4968356;28;20457;-62
2022/03/21 13:58:34;;;;;;;12.25;5.22;;;;;;;;;;4969286;28;20472;-62
2022/03/21 14:01:00;;;;;;;10.70;5.22;;;;;;;;;;4968700;28;20030;-62
2022/03/21 14:03:36;;;;;;;13.23;5.00;;;;;;;;;;4967968;28;20025;-62
2022/03/21 14:06:06;;;;;;;10.30;4.70;;;;;;;;;;4968576;28;20056;-63
2022/03/21 14:08:33;;;;;;;11.20;5.80;;;;;;;;;;4968263;28;20353;-62
2022/03/21 14:11:04;;;;;;;10.85;5.30;;;;;;;;;;4969170;28;20360;-62
2022/03/21 14:13:29;;;;;;;10.35;4.70;;;;;;;;;;4968693;28;20417;-63
2022/03/21 14:15:58;;;;;;;10.45;5.32;;;;;;;;;;4966007;28;20376;-62
2022/03/21 14:18:25;;;;;;;10.60;5.05;;;;;;;;;;4972129;28;20653;-62
2022/03/21 14:20:51;;;;;;;10.90;4.45;;;;;;;;;;4971980;28;20345;-63
2022/03/21 14:23:16;;;;;;;8.23;4.50;;;;;;;;;;4973514;28;20313;-62
2022/03/21 14:28:25;;;;;;;12.25;4.43;;;;;;;;;;4950472;28;20103;-62
2022/03/21 14:30:51;;;;;;;11.52;5.32;;;;;;;;;;4971822;28;20417;-62
2022/03/21 14:33:16;;;;;;;9.02;4.47;;;;;;;;;;4971671;28;20326;-62
2022/03/21 14:35:42;;;;;;;8.73;4.53;;;;;;;;;;4971148;28;20427;-62
2022/03/21 14:38:07;;;;;;;7.45;4.40;;;;;;;;;;4972187;28;20493;-62
2022/03/21 14:40:33;;;;;;;11.30;5.55;;;;;;;;;;4971632;28;20340;-62
2022/03/21 14:42:59;;;;;;;9.20;3.92;;;;;;;;;;4971927;28;20026;-62
2022/03/21 14:45:24;;;;;;;13.00;5.25;;;;;;;;;;4971291;28;20025;-63
2022/03/21 14:47:49;;;;;;;9.48;4.75;;;;;;;;;;4972561;28;20452;-63
2022/03/21 14:50:15;;;;;;;8.10;4.70;;;;;;;;;;4971672;28;20460;-62
2022/03/21 14:52:40;;;;;;;10.80;5.22;;;;;;;;;;4971444;28;20437;-62
2022/03/21 14:55:06;;;;;;;11.40;4.25;;;;;;;;;;4970895;28;20423;-63
2022/03/21 14:57:32;;;;;;;10.60;4.63;;;;;;;;;;4971228;28;20510;-62
2022/03/21 14:59:57;;;;;;;9.25;4.28;;;;;;;;;;4971539;28;20025;-62